Time;durP1;ratioP1;P1;durP2;ratioP2;P2;SDS_P1;SDS_P2;PMS_P1;PMS_P2;Temp;Humidity;BMP_temperature;BMP_pressure;BME280_temperature;BME280_humidity;BME280_pressure;Samples;Min_cycle;Max_cycle;Signal;HPM_P1;HPM_P2
2022/07/04 00:00:00;;;;;;;1.42;0.80;;;20.40;52.30;;;;;;5009498;28;20084;-74
2022/07/04 00:02:26;;;;;;;1.08;0.70;;;20.40;52.40;;;;;;5004101;28;20519;-71
2022/07/04 00:04:51;;;;;;;2.10;0.80;;;20.30;52.40;;;;;;5029964;28;20035;-71
2022/07/04 00:07:17;;;;;;;2.05;1.00;;;20.30;52.50;;;;;;5016753;28;20141;-72
2022/07/04 00:09:42;;;;;;;4.20;1.00;;;20.30;52.50;;;;;;5006178;28;20086;-72
2022/07/04 00:12:08;;;;;;;0.65;0.65;;;20.20;52.60;;;;;;5011602;28;20570;-72
2022/07/04 00:14:34;;;;;;;3.30;0.90;;;20.20;52.70;;;;;;5011335;28;20029;-72
2022/07/04 00:16:59;;;;;;;3.20;0.77;;;20.20;53.00;;;;;;5001649;28;20021;-71
2022/07/04 00:19:25;;;;;;;0.82;0.80;;;20.20;53.00;;;;;;4983113;28;20032;-72
2022/07/04 00:21:50;;;;;;;0.93;0.70;;;20.20;53.10;;;;;;4992183;28;20025;-71
2022/07/04 00:24:16;;;;;;;3.85;1.00;;;20.10;53.10;;;;;;5020854;28;20029;-74
2022/07/04 00:26:41;;;;;;;2.25;1.20;;;20.10;53.20;;;;;;5004853;28;20049;-74
2022/07/04 00:29:07;;;;;;;1.40;1.08;;;20.10;53.30;;;;;;4990517;28;20041;-72
2022/07/04 00:31:33;;;;;;;3.13;1.10;;;20.10;53.30;;;;;;5000309;28;20041;-72
2022/07/04 00:33:59;;;;;;;3.63;1.20;;;20.00;53.40;;;;;;4986208;28;20390;-71
2022/07/04 00:36:24;;;;;;;2.05;1.08;;;20.00;53.40;;;;;;5012810;28;20108;-71
2022/07/04 00:38:50;;;;;;;1.67;0.95;;;20.00;53.60;;;;;;5004982;28;20033;-72
2022/07/04 00:41:15;;;;;;;1.58;0.90;;;19.90;53.60;;;;;;4986217;28;20067;-72
2022/07/04 00:43:41;;;;;;;1.92;0.70;;;19.90;53.60;;;;;;4997329;28;20045;-72
2022/07/04 00:46:06;;;;;;;1.17;1.00;;;19.90;53.70;;;;;;4988363;28;20659;-72
2022/07/04 00:48:32;;;;;;;1.30;1.08;;;19.90;53.70;;;;;;4977940;28;20924;-72
2022/07/04 00:50:58;;;;;;;1.77;1.10;;;19.90;53.70;;;;;;4971979;28;20534;-72
2022/07/04 00:53:23;;;;;;;2.30;0.90;;;19.90;53.90;;;;;;4976364;28;20061;-72
2022/07/04 00:55:52;;;;;;;1.85;1.02;;;19.90;54.00;;;;;;4971707;28;20046;-72
2022/07/04 00:58:22;;;;;;;1.60;1.02;;;19.80;53.90;;;;;;4963684;28;20530;-71
2022/07/04 01:00:48;;;;;;;1.75;1.02;;;19.80;54.30;;;;;;4974735;28;20033;-71
2022/07/04 01:03:13;;;;;;;1.13;0.80;;;19.80;54.20;;;;;;4978583;28;20042;-71
2022/07/04 01:05:39;;;;;;;4.47;1.30;;;19.70;54.30;;;;;;4967528;28;20127;-71
2022/07/04 01:08:04;;;;;;;3.40;1.27;;;19.70;54.40;;;;;;4988465;28;20077;-71
2022/07/04 01:10:30;;;;;;;1.20;1.10;;;19.70;54.50;;;;;;4986470;28;20037;-71
2022/07/04 01:12:56;;;;;;;3.00;1.17;;;19.60;54.50;;;;;;4955804;28;20037;-71
2022/07/04 01:15:21;;;;;;;1.60;1.25;;;19.60;54.60;;;;;;4989421;28;20042;-73
2022/07/04 01:17:47;;;;;;;4.25;1.77;;;19.60;54.70;;;;;;4981145;28;20137;-72
2022/07/04 01:20:13;;;;;;;1.15;1.00;;;19.60;54.80;;;;;;4990203;28;20041;-73
2022/07/04 01:22:39;;;;;;;1.73;1.10;;;19.60;54.80;;;;;;4999852;28;20505;-72
2022/07/04 01:25:05;;;;;;;4.00;0.90;;;19.50;54.80;;;;;;5016326;28;20044;-72
2022/07/04 01:27:30;;;;;;;1.35;1.10;;;19.50;54.90;;;;;;5022699;28;20037;-72
2022/07/04 01:29:56;;;;;;;3.97;1.10;;;19.50;55.00;;;;;;5010011;28;20045;-72
2022/07/04 01:32:21;;;;;;;1.30;1.10;;;19.40;55.00;;;;;;5022554;28;20043;-73
2022/07/04 01:34:47;;;;;;;2.55;1.10;;;19.40;55.10;;;;;;5015153;28;20041;-72
2022/07/04 01:37:12;;;;;;;1.55;1.10;;;19.40;55.20;;;;;;4994644;28;20152;-72
2022/07/04 01:39:38;;;;;;;3.42;1.08;;;19.40;55.30;;;;;;5021730;28;20032;-73
2022/07/04 01:42:04;;;;;;;1.15;1.08;;;19.40;55.40;;;;;;5018271;28;20045;-72
2022/07/04 01:44:29;;;;;;;2.30;0.85;;;19.30;55.40;;;;;;5022652;28;20108;-72
2022/07/04 01:46:55;;;;;;;1.80;0.95;;;19.30;55.50;;;;;;5003788;28;20050;-72
2022/07/04 01:49:20;;;;;;;2.10;0.95;;;19.30;55.70;;;;;;5038608;28;20038;-73
2022/07/04 01:51:47;;;;;;;1.20;1.05;;;19.30;55.70;;;;;;4981430;28;21165;-73
2022/07/04 01:54:12;;;;;;;3.05;0.90;;;19.20;55.70;;;;;;5026194;28;20402;-73
2022/07/04 01:56:39;;;;;;;2.45;1.00;;;19.20;56.00;;;;;;5013407;28;20029;-73
2022/07/04 01:59:04;;;;;;;1.05;0.90;;;19.20;55.90;;;;;;4998313;28;20397;-72
2022/07/04 02:01:30;;;;;;;1.92;1.17;;;19.20;56.70;;;;;;5023189;28;20029;-72
2022/07/04 02:03:59;;;;;;;2.78;1.02;;;19.20;56.10;;;;;;4981202;28;20049;-72
2022/07/04 02:06:25;;;;;;;2.30;1.00;;;19.20;56.20;;;;;;4985978;28;20033;-72
2022/07/04 02:14:19;;;;;;;1.55;1.10;;;19.10;56.30;;;;;;4993734;28;20040;-72
2022/07/04 02:16:45;;;;;;;1.45;1.05;;;19.10;56.30;;;;;;5005324;28;20034;-72
2022/07/04 02:19:10;;;;;;;1.90;1.10;;;19.10;56.40;;;;;;4969805;28;20107;-74
2022/07/04 02:21:36;;;;;;;2.40;1.02;;;19.10;56.50;;;;;;5002007;28;20058;-73
2022/07/04 02:24:01;;;;;;;2.05;0.95;;;19.00;56.50;;;;;;5004613;28;20205;-72
2022/07/04 02:26:27;;;;;;;2.67;0.90;;;19.00;56.60;;;;;;5014441;28;20780;-72
2022/07/04 02:28:53;;;;;;;1.73;1.05;;;19.00;56.70;;;;;;5021356;28;20064;-72
2022/07/04 02:31:18;;;;;;;1.45;0.88;;;19.00;56.70;;;;;;5026133;28;20026;-72
2022/07/04 02:33:44;;;;;;;3.85;0.93;;;19.00;56.80;;;;;;5018024;28;20033;-72
2022/07/04 02:36:09;;;;;;;2.05;1.10;;;18.90;56.80;;;;;;4998771;28;20029;-72
2022/07/04 02:38:35;;;;;;;1.90;0.90;;;18.90;56.80;;;;;;5023159;28;20168;-72
2022/07/04 02:41:00;;;;;;;1.10;1.00;;;18.90;56.90;;;;;;5024485;28;20122;-72
2022/07/04 02:43:26;;;;;;;1.60;1.02;;;18.90;56.90;;;;;;5003925;28;20046;-72
2022/07/04 02:45:51;;;;;;;1.25;1.00;;;18.80;57.00;;;;;;4960061;28;20372;-72
2022/07/04 02:48:17;;;;;;;1.10;1.00;;;18.80;57.10;;;;;;4998373;28;20556;-73
2022/07/04 02:50:42;;;;;;;1.10;0.90;;;18.80;57.20;;;;;;4997323;28;20365;-71
2022/07/04 02:53:08;;;;;;;3.15;1.00;;;18.80;57.20;;;;;;5011759;28;20049;-72
2022/07/04 02:55:33;;;;;;;1.52;0.95;;;18.80;57.20;;;;;;5016029;28;20179;-71
2022/07/04 02:57:59;;;;;;;1.20;0.75;;;18.80;57.30;;;;;;5014333;28;20076;-71
2022/07/04 03:00:24;;;;;;;1.98;0.98;;;18.80;57.40;;;;;;5011126;28;20133;-71
2022/07/04 03:02:50;;;;;;;1.05;0.90;;;18.70;57.40;;;;;;5021910;28;20029;-72
2022/07/04 03:05:15;;;;;;;1.20;0.90;;;18.70;57.50;;;;;;5002250;28;20052;-71
2022/07/04 03:07:41;;;;;;;1.33;1.10;;;18.70;57.50;;;;;;5020435;28;20028;-71
2022/07/04 03:10:07;;;;;;;2.65;0.95;;;18.70;57.60;;;;;;5028391;28;20045;-72
2022/07/04 03:12:32;;;;;;;0.90;0.90;;;18.60;57.60;;;;;;5012443;28;20460;-72
2022/07/04 03:14:59;;;;;;;1.50;1.10;;;18.60;57.70;;;;;;5004596;28;20051;-71
2022/07/04 03:17:25;;;;;;;1.42;1.00;;;18.60;57.80;;;;;;4997403;28;20075;-71
2022/07/04 03:19:51;;;;;;;5.13;1.10;;;18.60;57.90;;;;;;5004815;28;20057;-71
2022/07/04 03:22:16;;;;;;;2.80;1.05;;;18.50;57.90;;;;;;5020031;28;20128;-71
2022/07/04 03:24:42;;;;;;;1.23;0.95;;;18.50;58.00;;;;;;5013564;28;20120;-72
2022/07/04 03:27:07;;;;;;;2.15;1.52;;;18.50;58.10;;;;;;5008382;28;20072;-71
2022/07/04 03:29:33;;;;;;;1.52;1.30;;;18.50;58.10;;;;;;5012205;28;20437;-72
2022/07/04 03:31:59;;;;;;;1.23;0.80;;;18.40;58.30;;;;;;5000352;28;20510;-72
2022/07/04 03:34:24;;;;;;;3.95;0.93;;;18.40;58.30;;;;;;4994350;28;20045;-73
2022/07/04 03:36:50;;;;;;;4.03;2.05;;;18.40;58.30;;;;;;4997035;28;20034;-72
2022/07/04 03:39:15;;;;;;;3.08;1.63;;;18.40;58.30;;;;;;5010265;28;20044;-72
2022/07/04 03:41:41;;;;;;;1.92;1.10;;;18.40;58.40;;;;;;5005281;28;20034;-72
2022/07/04 03:44:06;;;;;;;3.10;1.40;;;18.40;58.50;;;;;;4994650;28;20049;-71
2022/07/04 03:46:32;;;;;;;2.40;1.30;;;18.30;58.60;;;;;;4982579;28;20041;-72
2022/07/04 03:48:57;;;;;;;3.70;1.08;;;18.30;58.60;;;;;;5012008;28;20041;-72
2022/07/04 03:51:23;;;;;;;1.98;1.17;;;18.30;58.70;;;;;;5031563;28;20045;-72
2022/07/04 03:53:49;;;;;;;1.05;0.95;;;18.30;58.80;;;;;;5019618;28;20032;-72
2022/07/04 03:56:14;;;;;;;3.33;0.93;;;18.30;58.90;;;;;;4968366;28;20114;-71
2022/07/04 03:58:42;;;;;;;1.33;1.10;;;18.30;58.90;;;;;;5011642;28;20128;-71
2022/07/04 04:01:08;;;;;;;2.38;1.10;;;18.20;59.00;;;;;;4994024;28;20049;-71
2022/07/04 04:06:17;;;;;;;2.03;1.00;;;18.20;59.10;;;;;;5000034;28;20045;-73
2022/07/04 04:08:43;;;;;;;2.75;1.17;;;18.20;59.20;;;;;;5015631;28;20025;-72
2022/07/04 04:11:08;;;;;;;1.13;0.93;;;18.20;59.30;;;;;;5009791;28;20041;-72
2022/07/04 04:13:34;;;;;;;2.80;1.02;;;18.20;59.30;;;;;;4986748;28;20044;-72
2022/07/04 04:16:00;;;;;;;1.50;1.20;;;18.20;59.40;;;;;;5014495;28;20034;-71
2022/07/04 04:18:25;;;;;;;4.70;1.15;;;18.20;59.30;;;;;;5009162;28;20044;-72
2022/07/04 04:20:51;;;;;;;3.78;1.33;;;18.20;59.40;;;;;;4991961;28;20036;-72
2022/07/04 04:23:16;;;;;;;3.25;0.98;;;18.20;59.60;;;;;;5014994;28;20041;-72
2022/07/04 04:25:42;;;;;;;2.10;1.10;;;18.20;59.60;;;;;;5012679;28;20038;-72
2022/07/04 04:28:07;;;;;;;2.70;0.85;;;18.20;59.60;;;;;;5012667;28;20034;-72
2022/07/04 04:30:33;;;;;;;3.65;1.20;;;18.20;59.70;;;;;;5005858;28;20532;-74
2022/07/04 04:32:59;;;;;;;1.13;1.02;;;18.20;59.90;;;;;;5008341;28;20196;-71
2022/07/04 04:35:24;;;;;;;3.17;1.30;;;18.20;60.00;;;;;;5021743;28;20044;-73
2022/07/04 04:37:50;;;;;;;1.17;0.98;;;18.20;61.00;;;;;;5014180;28;20049;-71
2022/07/04 04:40:16;;;;;;;2.35;1.10;;;18.20;60.30;;;;;;4976845;28;20042;-71
2022/07/04 04:42:42;;;;;;;2.05;1.10;;;18.20;60.40;;;;;;4990987;28;20037;-72
2022/07/04 04:45:08;;;;;;;6.70;1.00;;;18.20;60.50;;;;;;5027410;28;20567;-71
2022/07/04 04:47:33;;;;;;;3.25;0.90;;;18.30;60.70;;;;;;5013733;28;20047;-71
2022/07/04 04:50:00;;;;;;;3.60;0.98;;;18.30;60.80;;;;;;5005885;28;20442;-71
2022/07/04 04:52:26;;;;;;;3.25;1.15;;;18.30;60.90;;;;;;5009086;28;20033;-71
2022/07/04 04:54:51;;;;;;;3.05;1.15;;;18.30;60.90;;;;;;5010121;28;20045;-72
2022/07/04 04:57:17;;;;;;;4.13;1.20;;;18.40;60.90;;;;;;5006296;28;20605;-72
2022/07/04 04:59:42;;;;;;;2.53;1.10;;;18.40;60.90;;;;;;5016165;28;20051;-72
2022/07/04 05:02:08;;;;;;;4.28;1.20;;;18.50;61.10;;;;;;5000910;28;20045;-71
2022/07/04 05:04:33;;;;;;;2.03;1.17;;;18.50;61.00;;;;;;5017891;28;20049;-72
2022/07/04 05:06:59;;;;;;;4.50;1.10;;;18.50;61.00;;;;;;5018665;28;20526;-73
2022/07/04 05:09:24;;;;;;;1.33;1.00;;;18.50;61.00;;;;;;5008657;28;20509;-72
2022/07/04 05:11:50;;;;;;;1.08;0.98;;;18.60;61.00;;;;;;4994620;28;20486;-71
2022/07/04 05:14:15;;;;;;;1.08;0.95;;;18.60;61.00;;;;;;4993513;28;20049;-74
2022/07/04 05:16:41;;;;;;;6.57;1.20;;;18.70;61.00;;;;;;4998799;28;20073;-72
2022/07/04 05:19:06;;;;;;;4.15;1.00;;;18.70;61.00;;;;;;5026311;28;20029;-72
2022/07/04 05:21:32;;;;;;;3.03;1.00;;;18.70;60.90;;;;;;5014411;28;20505;-72
2022/07/04 05:23:58;;;;;;;1.08;0.98;;;18.80;60.80;;;;;;4990956;28;20033;-72
2022/07/04 05:26:23;;;;;;;1.73;1.00;;;18.80;60.70;;;;;;5029464;28;20406;-71
2022/07/04 05:28:49;;;;;;;3.05;1.15;;;18.90;60.70;;;;;;4996146;28;20099;-71
2022/07/04 05:31:14;;;;;;;3.05;1.20;;;18.90;60.80;;;;;;5031643;28;20037;-73
2022/07/04 05:33:40;;;;;;;1.67;1.05;;;19.00;60.70;;;;;;5014943;28;20519;-71
2022/07/04 05:36:06;;;;;;;2.20;0.93;;;19.10;60.50;;;;;;5008950;28;20057;-72
2022/07/04 05:38:31;;;;;;;4.13;0.93;;;19.10;60.50;;;;;;5044491;28;20671;-72
2022/07/04 05:40:57;;;;;;;0.90;0.90;;;19.20;60.40;;;;;;4988712;28;20049;-72
2022/07/04 05:43:25;;;;;;;2.00;1.23;;;19.20;60.30;;;;;;5019276;28;20037;-73
2022/07/04 05:45:50;;;;;;;3.13;1.10;;;19.40;60.30;;;;;;4975666;28;20116;-73
2022/07/04 05:48:16;;;;;;;4.10;1.10;;;19.40;60.20;;;;;;5007763;28;20037;-72
2022/07/04 05:50:41;;;;;;;1.95;1.02;;;19.40;60.10;;;;;;5020862;28;20033;-72
2022/07/04 05:53:07;;;;;;;1.80;1.10;;;19.50;60.20;;;;;;4996744;28;20037;-73
2022/07/04 05:55:34;;;;;;;2.45;1.05;;;19.50;59.90;;;;;;5014892;28;20028;-72
2022/07/04 05:57:59;;;;;;;1.83;1.20;;;19.50;59.80;;;;;;5011824;28;20029;-72
2022/07/04 06:00:25;;;;;;;3.38;1.25;;;19.50;59.70;;;;;;5032228;28;20591;-72
2022/07/04 06:02:50;;;;;;;1.40;1.30;;;19.60;59.80;;;;;;5036552;28;20037;-72
2022/07/04 06:05:16;;;;;;;2.80;1.20;;;19.60;59.80;;;;;;5038559;28;20042;-73
2022/07/04 06:07:42;;;;;;;1.60;1.00;;;19.60;59.70;;;;;;5011942;28;20049;-72
2022/07/04 06:10:07;;;;;;;3.65;1.40;;;19.70;59.70;;;;;;4983958;28;20449;-72
2022/07/04 06:12:33;;;;;;;2.00;1.00;;;19.80;59.60;;;;;;5009787;28;20121;-72
2022/07/04 06:14:58;;;;;;;3.05;1.10;;;19.90;59.60;;;;;;4999946;28;20041;-73
2022/07/04 06:17:24;;;;;;;3.28;0.90;;;20.00;59.50;;;;;;4983478;28;20112;-72
2022/07/04 06:19:49;;;;;;;2.40;1.00;;;20.10;59.30;;;;;;5013186;28;20098;-72
2022/07/04 06:22:16;;;;;;;1.48;0.98;;;20.20;59.20;;;;;;5011187;28;20505;-72
2022/07/04 06:24:41;;;;;;;4.25;1.30;;;20.30;59.10;;;;;;5013216;28;20044;-72
2022/07/04 06:27:07;;;;;;;4.97;1.27;;;20.40;59.00;;;;;;5039280;28;20044;-72
2022/07/04 06:29:32;;;;;;;2.75;1.10;;;20.50;58.80;;;;;;5021447;28;20051;-73
2022/07/04 06:31:58;;;;;;;7.90;1.30;;;20.60;58.70;;;;;;5012311;28;20039;-72
2022/07/04 06:37:07;;;;;;;1.65;0.95;;;20.90;58.60;;;;;;5021042;28;20547;-71
2022/07/04 06:39:33;;;;;;;3.55;1.10;;;21.00;58.30;;;;;;5011199;28;20037;-73
2022/07/04 06:41:58;;;;;;;1.48;1.05;;;21.10;58.10;;;;;;5020982;28;20040;-71
2022/07/04 06:44:24;;;;;;;2.75;1.10;;;21.20;57.90;;;;;;5040367;28;20037;-72
2022/07/04 06:46:50;;;;;;;1.60;1.10;;;21.30;57.70;;;;;;5022623;28;20102;-72
2022/07/04 06:49:16;;;;;;;4.05;1.40;;;21.50;57.60;;;;;;4991394;28;20239;-72
2022/07/04 06:51:42;;;;;;;1.63;1.00;;;21.60;57.40;;;;;;4995721;28;20596;-73
2022/07/04 06:54:07;;;;;;;6.05;1.10;;;21.70;57.20;;;;;;5018186;28;20621;-72
2022/07/04 06:56:33;;;;;;;5.40;1.08;;;21.80;57.00;;;;;;4989377;28;20661;-73
2022/07/04 06:58:59;;;;;;;3.13;1.13;;;22.00;56.80;;;;;;4994900;28;20040;-73
2022/07/04 07:01:24;;;;;;;3.83;0.93;;;22.10;56.50;;;;;;5015464;28;20037;-72
2022/07/04 07:03:50;;;;;;;2.38;1.00;;;22.20;56.30;;;;;;4983035;28;20038;-73
2022/07/04 07:06:16;;;;;;;2.33;1.00;;;22.30;56.00;;;;;;4981726;28;20042;-74
2022/07/04 07:08:41;;;;;;;1.67;0.80;;;22.50;55.90;;;;;;5029494;28;20038;-72
2022/07/04 07:11:13;;;;;;;2.42;1.00;;;22.60;55.70;;;;;;5012451;28;20037;-73
2022/07/04 07:13:46;;;;;;;2.00;0.90;;;22.70;56.20;;;;;;5008727;28;20215;-73
2022/07/04 07:16:12;;;;;;;3.03;1.00;;;22.80;55.20;;;;;;5037472;28;20398;-72
2022/07/04 07:18:37;;;;;;;11.02;2.70;;;23.00;55.10;;;;;;5013910;28;20523;-72
2022/07/04 07:21:03;;;;;;;3.53;0.90;;;23.10;54.80;;;;;;4987383;28;20033;-72
2022/07/04 07:23:29;;;;;;;2.75;0.90;;;23.30;54.60;;;;;;5041223;28;20398;-72
2022/07/04 07:25:54;;;;;;;1.95;1.00;;;23.40;54.40;;;;;;5010311;28;20159;-72
2022/07/04 07:28:20;;;;;;;1.10;0.95;;;23.60;54.10;;;;;;5037547;28;20588;-72
2022/07/04 07:30:45;;;;;;;3.83;1.13;;;23.70;53.90;;;;;;5009370;28;20036;-71
2022/07/04 07:33:11;;;;;;;2.00;0.98;;;23.90;53.60;;;;;;5015642;28;20131;-74
2022/07/04 07:35:37;;;;;;;2.33;0.70;;;24.00;53.40;;;;;;5019235;28;20093;-74
2022/07/04 07:38:02;;;;;;;3.58;1.00;;;24.20;53.20;;;;;;5033974;28;20079;-73
2022/07/04 07:40:28;;;;;;;5.00;1.20;;;24.30;52.90;;;;;;5023710;28;20031;-73
2022/07/04 07:42:54;;;;;;;2.13;0.98;;;24.50;52.60;;;;;;5018062;28;20043;-73
2022/07/04 07:45:20;;;;;;;2.08;0.80;;;24.60;52.30;;;;;;4979750;28;20103;-73
2022/07/04 07:47:46;;;;;;;3.00;0.93;;;24.80;52.00;;;;;;4971154;28;20074;-73
2022/07/04 07:50:12;;;;;;;4.07;0.77;;;25.00;51.70;;;;;;4994071;28;20064;-73
2022/07/04 07:52:37;;;;;;;2.25;0.93;;;25.10;51.50;;;;;;4949319;28;20046;-74
2022/07/04 07:55:03;;;;;;;5.97;1.08;;;25.20;51.20;;;;;;5006480;28;20086;-73
2022/07/04 07:57:29;;;;;;;3.03;0.93;;;25.40;51.00;;;;;;4966015;28;20429;-73
2022/07/04 07:59:55;;;;;;;2.83;0.90;;;25.60;50.80;;;;;;4976244;28;20046;-76
2022/07/04 08:04:33;;;;;;;2.20;0.80;;;25.60;50.50;;;;;;4949709;28;20133;-73
2022/07/04 08:05:06;;;;;;;4.05;0.82;;;25.70;50.30;;;;;;4999668;28;20056;-72
2022/07/04 08:07:32;;;;;;;7.18;1.15;;;25.80;50.00;;;;;;4985067;28;20526;-73
2022/07/04 08:09:57;;;;;;;2.58;0.70;;;25.80;49.60;;;;;;4990649;28;20040;-73
2022/07/04 08:12:23;;;;;;;2.42;0.90;;;25.90;49.30;;;;;;5000347;28;20034;-75
2022/07/04 08:14:48;;;;;;;2.30;0.73;;;26.10;49.00;;;;;;4997926;28;20045;-73
2022/07/04 08:17:14;;;;;;;0.93;0.80;;;26.30;48.70;;;;;;5003134;28;20050;-73
2022/07/04 08:19:39;;;;;;;4.22;0.80;;;26.40;48.30;;;;;;4970025;28;20073;-73
2022/07/04 08:22:05;;;;;;;2.17;1.10;;;26.70;48.10;;;;;;4963390;28;20065;-73
2022/07/04 08:24:30;;;;;;;2.40;0.80;;;26.80;47.80;;;;;;5019649;28;20533;-74
2022/07/04 08:26:56;;;;;;;3.25;0.80;;;27.00;47.50;;;;;;4993313;28;21007;-74
2022/07/04 08:29:21;;;;;;;2.03;0.70;;;27.20;47.20;;;;;;4994854;28;20394;-73
2022/07/04 08:31:47;;;;;;;3.63;0.65;;;27.40;46.90;;;;;;4972152;28;20403;-74
2022/07/04 08:34:13;;;;;;;2.63;0.77;;;27.60;46.60;;;;;;4988409;28;20422;-75
2022/07/04 08:36:38;;;;;;;3.15;0.70;;;27.70;46.30;;;;;;4992136;28;20037;-74
2022/07/04 08:39:04;;;;;;;4.00;0.70;;;27.80;46.10;;;;;;4986443;28;20029;-74
2022/07/04 08:41:38;;;;;;;2.13;0.65;;;27.90;45.80;;;;;;4991641;28;20060;-74
2022/07/04 08:44:05;;;;;;;1.90;0.82;;;28.00;45.50;;;;;;5010439;28;20041;-73
2022/07/04 08:46:31;;;;;;;3.05;0.70;;;28.00;45.20;;;;;;5024861;28;20040;-73
2022/07/04 08:48:58;;;;;;;1.88;0.85;;;28.10;45.00;;;;;;5051067;28;20045;-73
2022/07/04 08:51:46;;;;;;;3.67;0.90;;;28.30;44.80;;;;;;5031190;28;20085;-73
2022/07/04 08:59:50;;;;;;;3.42;0.63;;;28.90;44.00;;;;;;5017982;28;20044;-73
2022/07/04 09:02:17;;;;;;;2.22;0.75;;;29.00;43.60;;;;;;5031836;28;20035;-73
2022/07/04 09:04:42;;;;;;;3.50;0.73;;;29.20;43.30;;;;;;5017500;28;20033;-74
2022/07/04 09:07:08;;;;;;;1.33;0.93;;;29.40;43.00;;;;;;5042373;28;20485;-74
2022/07/04 09:09:33;;;;;;;2.90;0.60;;;29.60;42.80;;;;;;5034166;28;20659;-74
2022/07/04 09:11:59;;;;;;;5.90;1.23;;;29.70;42.50;;;;;;5012652;28;20471;-74
2022/07/04 09:14:24;;;;;;;5.03;0.95;;;29.90;41.90;;;;;;5041065;28;20549;-74
2022/07/04 09:16:51;;;;;;;1.48;0.50;;;30.10;41.70;;;;;;5026726;28;20568;-73
2022/07/04 09:19:21;;;;;;;1.15;0.43;;;30.10;41.40;;;;;;5011942;28;20031;-73
2022/07/04 09:21:47;;;;;;;1.40;0.60;;;30.30;41.10;;;;;;5048738;28;20060;-73
2022/07/04 09:24:12;;;;;;;0.90;0.60;;;30.30;40.90;;;;;;5030082;28;20045;-73
2022/07/04 09:26:44;;;;;;;1.90;0.60;;;30.50;40.70;;;;;;5035594;28;20629;-74
2022/07/04 09:29:10;;;;;;;6.18;0.70;;;30.60;40.20;;;;;;5018269;28;20057;-74
2022/07/04 09:31:36;;;;;;;3.30;0.60;;;30.70;40.00;;;;;;5032214;28;20599;-74
2022/07/04 09:34:03;;;;;;;3.42;0.60;;;30.70;39.60;;;;;;5033267;28;20390;-74
2022/07/04 09:36:52;;;;;;;4.45;0.50;;;30.80;39.30;;;;;;5027795;28;20121;-73
2022/07/04 09:39:20;;;;;;;2.88;0.60;;;31.00;38.20;;;;;;5016819;28;20052;-74
2022/07/04 09:41:51;;;;;;;1.52;0.70;;;31.10;38.80;;;;;;5028506;28;20035;-73
2022/07/04 09:44:17;;;;;;;3.65;0.50;;;31.30;38.10;;;;;;5010770;28;20079;-73
2022/07/04 09:46:43;;;;;;;0.68;0.40;;;31.50;38.10;;;;;;5035553;28;20040;-74
2022/07/04 09:49:09;;;;;;;1.55;0.50;;;31.60;37.60;;;;;;5021455;28;20498;-74
2022/07/04 09:51:42;;;;;;;0.82;0.50;;;31.70;37.10;;;;;;5023939;28;20033;-73
2022/07/04 09:54:31;;;;;;;0.55;0.55;;;31.90;36.20;;;;;;5025481;28;20109;-73
2022/07/04 09:56:58;;;;;;;1.42;0.50;;;31.90;35.50;;;;;;5002890;28;20041;-74
2022/07/04 09:59:24;;;;;;;1.15;0.50;;;32.00;36.20;;;;;;5021328;28;20039;-74
2022/07/04 10:01:50;;;;;;;1.00;0.38;;;32.10;36.10;;;;;;5019742;28;20028;-74
2022/07/04 10:04:16;;;;;;;1.45;0.60;;;32.20;36.00;;;;;;4995458;28;20041;-73
2022/07/04 10:06:42;;;;;;;0.40;0.40;;;32.20;35.90;;;;;;5009922;28;20032;-74
2022/07/04 10:09:17;;;;;;;0.40;0.40;;;32.40;35.90;;;;;;4998737;28;20758;-74
2022/07/04 10:11:46;;;;;;;0.57;0.40;;;32.60;35.30;;;;;;5018096;28;20052;-73
2022/07/04 10:14:12;;;;;;;1.48;0.50;;;32.80;35.50;;;;;;5025071;28;20033;-74
2022/07/04 10:16:38;;;;;;;1.05;0.38;;;33.00;35.30;;;;;;5038191;28;20037;-73
2022/07/04 10:19:05;;;;;;;2.50;0.77;;;33.10;34.90;;;;;;5018177;28;20026;-74
2022/07/04 10:21:30;;;;;;;2.80;0.52;;;33.20;34.50;;;;;;5022682;28;20028;-73
2022/07/04 10:23:56;;;;;;;1.05;0.40;;;33.20;34.20;;;;;;4996341;28;20060;-74
2022/07/04 10:26:22;;;;;;;1.58;0.47;;;33.30;34.20;;;;;;5023763;28;20033;-73
2022/07/04 10:28:48;;;;;;;1.17;0.55;;;33.40;33.90;;;;;;5037892;28;20746;-75
2022/07/04 10:31:14;;;;;;;0.75;0.40;;;33.60;33.90;;;;;;5031972;28;20037;-74
2022/07/04 10:33:40;;;;;;;2.30;0.70;;;33.70;33.80;;;;;;5016667;28;20048;-72
2022/07/04 10:36:16;;;;;;;4.38;1.02;;;33.70;33.50;;;;;;5034540;28;20070;-72
2022/07/04 10:38:52;;;;;;;7.13;0.77;;;33.90;33.00;;;;;;5016127;28;20037;-72
2022/07/04 10:41:23;;;;;;;2.45;0.50;;;34.00;32.90;;;;;;5032182;28;20037;-73
2022/07/04 10:43:49;;;;;;;;;;;34.20;33.30;;;;;;5011531;28;20600;-72
2022/07/04 10:46:20;;;;;;;5.22;0.50;;;34.40;33.30;;;;;;5045689;28;20050;-72
2022/07/04 10:49:15;;;;;;;2.35;0.35;;;34.50;33.20;;;;;;5021027;28;20065;-73
2022/07/04 10:51:46;;;;;;;0.40;0.22;;;34.50;31.20;;;;;;4995840;28;20039;-74
2022/07/04 10:54:31;;;;;;;0.98;0.30;;;34.60;32.00;;;;;;5053025;28;20036;-74
2022/07/04 10:57:16;;;;;;;1.02;0.40;;;34.60;31.60;;;;;;4992504;28;20057;-73
2022/07/04 10:59:52;;;;;;;0.45;0.40;;;34.80;31.20;;;;;;5026905;28;20025;-73
2022/07/04 11:02:17;;;;;;;3.45;0.45;;;34.90;30.90;;;;;;5036584;28;20024;-72
2022/07/04 11:05:05;;;;;;;0.73;0.50;;;35.00;30.70;;;;;;5048068;28;20043;-74
2022/07/04 11:07:36;;;;;;;0.95;0.32;;;35.00;29.80;;;;;;5034823;28;20033;-73
2022/07/04 11:10:11;;;;;;;0.60;0.38;;;35.10;30.20;;;;;;5030825;28;20422;-72
2022/07/04 11:12:55;;;;;;;1.42;0.50;;;35.10;29.80;;;;;;5024850;28;20553;-72
2022/07/04 11:15:32;;;;;;;2.92;0.30;;;35.20;29.50;;;;;;5028798;28;24316;-72
2022/07/04 11:18:08;;;;;;;6.70;0.88;;;35.20;29.50;;;;;;5042485;28;20091;-72
2022/07/04 11:20:34;;;;;;;2.10;0.60;;;35.10;29.70;;;;;;5023514;28;20895;-72
2022/07/04 11:23:12;;;;;;;3.13;0.60;;;35.20;30.00;;;;;;5033167;28;20118;-74
2022/07/04 11:25:39;;;;;;;1.77;0.40;;;35.30;29.50;;;;;;5041381;28;20501;-73
2022/07/04 11:28:39;;;;;;;6.88;0.85;;;35.40;29.90;;;;;;5022772;28;20131;-72
2022/07/04 11:31:05;;;;;;;1.85;1.33;;;35.50;29.10;;;;;;4976859;28;20075;-73
2022/07/04 11:33:31;;;;;;;0.82;0.60;;;35.50;29.70;;;;;;5026564;28;20068;-73
2022/07/04 11:36:20;;;;;;;3.25;0.60;;;35.50;29.60;;;;;;5009630;28;20036;-72
2022/07/04 11:38:47;;;;;;;1.77;0.50;;;35.60;29.10;;;;;;5004299;28;20049;-73
2022/07/04 11:46:41;;;;;;;6.05;0.85;;;35.80;29.40;;;;;;4995447;28;20567;-74
2022/07/04 11:49:10;;;;;;;3.80;0.47;;;35.80;29.30;;;;;;4967426;28;20046;-72
2022/07/04 11:51:42;;;;;;;2.17;0.40;;;35.80;29.20;;;;;;4963446;28;20629;-72
2022/07/04 11:54:07;;;;;;;1.13;0.25;;;35.90;29.00;;;;;;4964885;28;20077;-73
2022/07/04 11:56:33;;;;;;;5.90;0.60;;;35.90;29.00;;;;;;4957007;28;20119;-73
2022/07/04 11:59:08;;;;;;;3.78;0.50;;;35.90;28.90;;;;;;4969556;28;20050;-73
2022/07/04 12:01:33;;;;;;;1.23;0.50;;;36.00;28.80;;;;;;4998169;28;20505;-73
2022/07/04 12:04:11;;;;;;;1.75;0.40;;;36.00;28.80;;;;;;4970337;28;20038;-73
2022/07/04 12:06:37;;;;;;;4.15;0.40;;;36.10;27.90;;;;;;4974772;28;20108;-73
2022/07/04 12:09:03;;;;;;;2.67;0.43;;;36.20;28.50;;;;;;4998099;28;20663;-72
2022/07/04 12:11:54;;;;;;;2.00;0.60;;;36.10;28.20;;;;;;4975477;28;20026;-74
2022/07/04 12:14:19;;;;;;;0.90;0.40;;;36.00;27.40;;;;;;4977091;28;20619;-73
2022/07/04 12:16:47;;;;;;;1.42;0.40;;;36.00;28.00;;;;;;5010037;28;20041;-73
2022/07/04 12:19:12;;;;;;;4.72;0.40;;;36.00;27.90;;;;;;4980065;28;20030;-73
2022/07/04 12:21:38;;;;;;;1.20;0.30;;;36.10;27.80;;;;;;5002581;28;20185;-73
2022/07/04 12:24:04;;;;;;;1.33;0.38;;;36.20;27.60;;;;;;5006759;28;20754;-74
2022/07/04 12:26:30;;;;;;;0.68;0.40;;;36.20;27.40;;;;;;5006709;28;20053;-73
2022/07/04 12:28:57;;;;;;;1.08;0.35;;;36.30;27.20;;;;;;5010975;28;20177;-73
2022/07/04 12:31:43;;;;;;;0.68;0.20;;;36.30;27.10;;;;;;5011027;28;20034;-73
2022/07/04 12:34:15;;;;;;;1.50;0.20;;;36.40;26.40;;;;;;4999562;28;20034;-74
2022/07/04 12:36:51;;;;;;;2.28;0.30;;;36.50;26.50;;;;;;5003673;28;20056;-73
2022/07/04 12:39:33;;;;;;;0.55;0.40;;;36.50;26.00;;;;;;5013344;28;20088;-75
2022/07/04 12:42:14;;;;;;;1.83;0.30;;;36.60;25.30;;;;;;5009099;28;20034;-72
2022/07/04 12:44:41;;;;;;;0.55;0.28;;;36.50;25.20;;;;;;5018008;28;20045;-73
2022/07/04 12:47:07;;;;;;;0.40;0.40;;;36.50;25.90;;;;;;5014452;28;20037;-73
2022/07/04 12:49:33;;;;;;;1.20;0.40;;;36.60;25.90;;;;;;4980961;28;20567;-73
2022/07/04 12:52:18;;;;;;;0.35;0.20;;;36.60;25.80;;;;;;5004927;28;20086;-75
2022/07/04 12:54:46;;;;;;;0.80;0.30;;;36.70;25.40;;;;;;4980888;28;20029;-74
2022/07/04 12:57:15;;;;;;;0.85;0.30;;;36.80;25.90;;;;;;4992338;28;20057;-74
2022/07/04 12:59:41;;;;;;;12.68;0.70;;;36.80;25.70;;;;;;5004465;28;20068;-73
2022/07/04 13:02:08;;;;;;;0.70;0.38;;;36.70;25.50;;;;;;4992489;28;20038;-74
2022/07/04 13:04:34;;;;;;;0.80;0.38;;;36.70;25.40;;;;;;4999372;28;20117;-75
2022/07/04 13:07:00;;;;;;;0.88;0.30;;;36.80;25.30;;;;;;5014820;28;20054;-73
2022/07/04 13:09:26;;;;;;;1.20;0.30;;;36.80;25.10;;;;;;4995926;28;20029;-75